Time;durP1;ratioP1;P1;durP2;ratioP2;P2;SDS_P1;SDS_P2;PMS_P1;PMS_P2;Temp;Humidity;BMP_temperature;BMP_pressure;BME280_temperature;BME280_humidity;BME280_pressure;Samples;Min_cycle;Max_cycle;Signal;HPM_P1;HPM_P2
2022/12/26 00:02:03;;;;;;;186.07;27.70;;;;;;;;;;4979945;28;20056;-72
2022/12/26 00:04:31;;;;;;;176.35;27.33;;;;;;;;;;4983845;28;20643;-74
2022/12/26 00:06:59;;;;;;;165.27;26.80;;;;;;;;;;4985354;28;20054;-73
2022/12/26 00:09:26;;;;;;;193.00;27.98;;;;;;;;;;4989695;28;20046;-71
2022/12/26 00:11:54;;;;;;;271.13;30.92;;;;;;;;;;4983444;28;20045;-73
2022/12/26 00:14:21;;;;;;;268.17;29.73;;;;;;;;;;4985559;28;20058;-72
2022/12/26 00:16:48;;;;;;;221.52;27.92;;;;;;;;;;4974943;28;20050;-71
2022/12/26 00:19:15;;;;;;;181.80;26.02;;;;;;;;;;4975756;28;20093;-73
2022/12/26 00:21:43;;;;;;;205.88;27.95;;;;;;;;;;4971350;28;20054;-74
2022/12/26 00:24:12;;;;;;;174.15;25.38;;;;;;;;;;4994990;28;20053;-74
2022/12/26 00:26:39;;;;;;;218.93;26.95;;;;;;;;;;5000563;28;20770;-72
2022/12/26 00:29:06;;;;;;;207.35;28.17;;;;;;;;;;5002729;28;20068;-72
2022/12/26 00:31:34;;;;;;;183.38;26.05;;;;;;;;;;5002287;28;20052;-71
2022/12/26 00:34:02;;;;;;;173.27;25.92;;;;;;;;;;5000266;28;20049;-74
2022/12/26 00:36:31;;;;;;;188.32;28.55;;;;;;;;;;4996316;28;20140;-71
2022/12/26 00:38:59;;;;;;;142.52;24.92;;;;;;;;;;5001095;28;20544;-71
2022/12/26 00:41:28;;;;;;;172.23;27.50;;;;;;;;;;5003904;28;20046;-73
2022/12/26 00:43:55;;;;;;;197.80;29.27;;;;;;;;;;5000842;28;20041;-71
2022/12/26 00:46:23;;;;;;;146.88;27.00;;;;;;;;;;4998760;28;20186;-71
2022/12/26 00:48:50;;;;;;;182.90;27.25;;;;;;;;;;5000901;28;20057;-71
2022/12/26 00:51:18;;;;;;;175.88;26.73;;;;;;;;;;5000177;28;20050;-72
2022/12/26 00:53:45;;;;;;;178.98;26.95;;;;;;;;;;4999096;28;20060;-73
2022/12/26 00:56:12;;;;;;;166.07;27.45;;;;;;;;;;5001261;28;20056;-74
2022/12/26 00:58:41;;;;;;;157.13;25.92;;;;;;;;;;4999212;28;20081;-71
2022/12/26 01:01:10;;;;;;;165.73;27.52;;;;;;;;;;5002035;28;20046;-71
2022/12/26 01:03:38;;;;;;;177.55;25.73;;;;;;;;;;5002551;28;20045;-72
2022/12/26 01:06:05;;;;;;;188.50;27.38;;;;;;;;;;5007544;28;20065;-73
2022/12/26 01:08:33;;;;;;;210.07;29.05;;;;;;;;;;5005532;28;20053;-71
2022/12/26 01:11:03;;;;;;;219.85;29.50;;;;;;;;;;5001404;28;20053;-72
2022/12/26 01:13:30;;;;;;;209.60;28.77;;;;;;;;;;5001248;28;20049;-72
2022/12/26 01:15:59;;;;;;;197.15;27.23;;;;;;;;;;4994961;28;20052;-73
2022/12/26 01:18:26;;;;;;;187.13;26.40;;;;;;;;;;5001422;28;20049;-72
2022/12/26 01:20:58;;;;;;;176.35;26.48;;;;;;;;;;4988963;28;20048;-73
2022/12/26 01:23:25;;;;;;;220.27;26.80;;;;;;;;;;4998848;28;20125;-72
2022/12/26 01:25:53;;;;;;;185.77;26.65;;;;;;;;;;4996294;28;20053;-74
2022/12/26 01:28:20;;;;;;;208.10;27.58;;;;;;;;;;5003046;28;20050;-72
2022/12/26 01:30:47;;;;;;;172.02;24.92;;;;;;;;;;5000477;28;20053;-74
2022/12/26 01:33:16;;;;;;;211.90;27.33;;;;;;;;;;5001848;28;20064;-72
2022/12/26 01:35:53;;;;;;;155.50;24.45;;;;;;;;;;4998814;28;20053;-75
2022/12/26 01:38:20;;;;;;;162.43;26.55;;;;;;;;;;5001676;28;20045;-73
2022/12/26 01:40:48;;;;;;;180.98;26.55;;;;;;;;;;5001134;28;20041;-74
2022/12/26 01:43:16;;;;;;;151.13;26.73;;;;;;;;;;5001546;28;20049;-73
2022/12/26 01:45:46;;;;;;;141.70;26.45;;;;;;;;;;4999310;28;20511;-73
2022/12/26 01:48:17;;;;;;;140.38;26.13;;;;;;;;;;4992515;28;20053;-75
2022/12/26 01:50:48;;;;;;;132.43;24.83;;;;;;;;;;4998232;28;20072;-75
2022/12/26 01:53:20;;;;;;;129.23;24.10;;;;;;;;;;4995438;28;20046;-74
2022/12/26 01:55:49;;;;;;;135.38;24.73;;;;;;;;;;4998983;28;20049;-73
2022/12/26 01:58:20;;;;;;;122.68;24.75;;;;;;;;;;5000249;28;20445;-75
2022/12/26 02:00:47;;;;;;;134.77;26.65;;;;;;;;;;5001514;28;20501;-74
2022/12/26 02:06:01;;;;;;;111.07;25.50;;;;;;;;;;4995565;28;20052;-74
2022/12/26 02:08:31;;;;;;;108.35;25.75;;;;;;;;;;5004659;28;20072;-73
2022/12/26 02:11:02;;;;;;;92.45;24.63;;;;;;;;;;5002490;28;20069;-74
2022/12/26 02:13:30;;;;;;;102.00;23.73;;;;;;;;;;4999853;28;20050;-75
2022/12/26 02:15:57;;;;;;;99.15;24.85;;;;;;;;;;4997267;28;20053;-74
2022/12/26 02:18:24;;;;;;;103.32;24.92;;;;;;;;;;5002736;28;20050;-74
2022/12/26 02:20:57;;;;;;;104.88;26.55;;;;;;;;;;4988787;28;20397;-74
2022/12/26 02:23:42;;;;;;;98.53;25.77;;;;;;;;;;5004892;28;20053;-74
2022/12/26 02:26:27;;;;;;;98.57;27.08;;;;;;;;;;4977755;28;20057;-74
2022/12/26 02:29:13;;;;;;;105.45;27.63;;;;;;;;;;4994307;28;21296;-74
2022/12/26 02:31:46;;;;;;;108.22;27.73;;;;;;;;;;5003337;28;20045;-74
2022/12/26 02:34:15;;;;;;;118.00;28.92;;;;;;;;;;5005402;28;20058;-74
2022/12/26 02:36:51;;;;;;;129.93;30.83;;;;;;;;;;5002820;28;20053;-74
2022/12/26 02:39:23;;;;;;;131.45;31.00;;;;;;;;;;5002060;28;20049;-74
2022/12/26 02:41:56;;;;;;;111.20;32.33;;;;;;;;;;5005744;28;20053;-74
2022/12/26 02:47:15;;;;;;;119.85;31.52;;;;;;;;;;4997978;28;20056;-74
2022/12/26 03:14:54;;;;;;;176.07;42.78;;;;;;;;;;5003146;28;20103;-75
2022/12/26 03:17:24;;;;;;;164.55;41.72;;;;;;;;;;5000280;28;20995;-74
2022/12/26 03:20:00;;;;;;;203.70;43.15;;;;;;;;;;4998450;28;20756;-74
2022/12/26 03:22:32;;;;;;;189.13;43.50;;;;;;;;;;4996656;28;20045;-74
2022/12/26 03:27:46;;;;;;;182.40;44.30;;;;;;;;;;5000183;28;20061;-74
2022/12/26 03:32:58;;;;;;;172.27;42.17;;;;;;;;;;5031024;28;20128;-75
2022/12/26 03:35:28;;;;;;;178.13;45.65;;;;;;;;;;5000693;28;20045;-74
2022/12/26 03:37:57;;;;;;;195.68;43.60;;;;;;;;;;5001450;28;20067;-74
2022/12/26 04:19:44;;;;;;;120.05;33.70;;;;;;;;;;4998893;28;20222;-75
2022/12/26 04:44:42;;;;;;;129.27;34.72;;;;;;;;;;4959564;28;20085;-75
2022/12/26 04:47:10;;;;;;;115.95;37.25;;;;;;;;;;4959425;28;20050;-75
2022/12/26 04:52:53;;;;;;;111.40;35.55;;;;;;;;;;4999290;28;20049;-74
2022/12/26 04:55:15;;;;;;;97.05;34.00;;;;;;;;;;5002566;28;20132;-75
2022/12/26 04:57:44;;;;;;;104.13;33.63;;;;;;;;;;5000829;28;20064;-74
2022/12/26 05:00:12;;;;;;;91.95;32.88;;;;;;;;;;5002519;28;20045;-75
2022/12/26 05:11:02;;;;;;;69.55;29.40;;;;;;;;;;5001385;28;20045;-75
2022/12/26 05:13:31;;;;;;;73.25;30.52;;;;;;;;;;4997071;28;20817;-74
2022/12/26 05:29:44;;;;;;;82.05;32.55;;;;;;;;;;5001798;28;20145;-75
2022/12/26 05:32:11;;;;;;;75.57;31.35;;;;;;;;;;5000772;28;20053;-75
2022/12/26 05:34:38;;;;;;;76.95;32.60;;;;;;;;;;5005969;28;20049;-75
2022/12/26 05:37:05;;;;;;;85.18;33.85;;;;;;;;;;4998234;28;20052;-75
2022/12/26 05:39:32;;;;;;;73.97;32.55;;;;;;;;;;4997468;28;20055;-75
2022/12/26 05:41:59;;;;;;;77.85;32.63;;;;;;;;;;5001543;28;20499;-75
2022/12/26 05:44:27;;;;;;;79.60;32.28;;;;;;;;;;5000097;28;20056;-75
2022/12/26 05:46:55;;;;;;;76.38;34.22;;;;;;;;;;4990556;28;21453;-75
2022/12/26 05:49:22;;;;;;;68.82;32.55;;;;;;;;;;4998975;28;20057;-75
2022/12/26 05:51:51;;;;;;;68.47;31.85;;;;;;;;;;4986304;28;20776;-75
2022/12/26 05:54:18;;;;;;;71.53;32.47;;;;;;;;;;5001600;28;20684;-76
2022/12/26 05:56:45;;;;;;;74.38;32.03;;;;;;;;;;5001268;28;20049;-75
2022/12/26 05:59:12;;;;;;;65.20;30.55;;;;;;;;;;5002472;28;20318;-74
2022/12/26 06:01:40;;;;;;;72.30;33.30;;;;;;;;;;4992036;28;20060;-75
2022/12/26 06:04:08;;;;;;;58.95;29.27;;;;;;;;;;4996017;28;20539;-75
2022/12/26 06:06:36;;;;;;;58.22;29.85;;;;;;;;;;4998793;28;20103;-75
2022/12/26 06:09:03;;;;;;;56.47;28.38;;;;;;;;;;5001144;28;20563;-75
2022/12/26 06:11:30;;;;;;;61.58;28.17;;;;;;;;;;4995862;28;20065;-75
2022/12/26 06:13:58;;;;;;;63.50;28.90;;;;;;;;;;4995533;28;20484;-75
2022/12/26 06:16:26;;;;;;;55.20;28.52;;;;;;;;;;4996788;28;20045;-75
2022/12/26 06:18:54;;;;;;;55.67;28.98;;;;;;;;;;5000676;28;20173;-76
2022/12/26 06:21:23;;;;;;;58.72;27.17;;;;;;;;;;4999966;28;20042;-75
2022/12/26 06:23:51;;;;;;;52.10;26.77;;;;;;;;;;4991578;28;20595;-75
2022/12/26 06:26:18;;;;;;;53.67;26.80;;;;;;;;;;4996312;28;20081;-75
2022/12/26 06:28:46;;;;;;;48.60;23.75;;;;;;;;;;4990405;28;20050;-75
2022/12/26 06:31:14;;;;;;;47.08;25.23;;;;;;;;;;4991940;28;20161;-75
2022/12/26 06:33:42;;;;;;;44.22;24.58;;;;;;;;;;4999972;28;20467;-75
2022/12/26 06:36:10;;;;;;;40.28;22.92;;;;;;;;;;5000954;28;20065;-75
2022/12/26 06:38:39;;;;;;;44.33;22.77;;;;;;;;;;4996398;28;20068;-75
2022/12/26 06:41:07;;;;;;;47.72;22.85;;;;;;;;;;5014541;28;20049;-75
2022/12/26 06:43:34;;;;;;;42.25;21.90;;;;;;;;;;4999216;28;20086;-75
2022/12/26 06:46:02;;;;;;;48.95;22.42;;;;;;;;;;4987828;28;20049;-75
2022/12/26 06:48:29;;;;;;;40.35;21.40;;;;;;;;;;4988859;28;20050;-75
2022/12/26 06:50:57;;;;;;;39.03;20.60;;;;;;;;;;4981315;28;20046;-75
2022/12/26 06:53:25;;;;;;;36.08;19.95;;;;;;;;;;5002042;28;20049;-74
2022/12/26 06:55:54;;;;;;;39.22;20.98;;;;;;;;;;5036830;28;20067;-75
2022/12/26 06:58:21;;;;;;;35.15;19.70;;;;;;;;;;5015640;28;20060;-75
2022/12/26 07:00:48;;;;;;;38.25;20.08;;;;;;;;;;5002900;28;20162;-74
2022/12/26 07:03:15;;;;;;;35.05;19.02;;;;;;;;;;5004306;28;20056;-75
2022/12/26 07:05:43;;;;;;;34.10;19.55;;;;;;;;;;5003121;28;20057;-75
2022/12/26 07:08:10;;;;;;;33.30;19.52;;;;;;;;;;5004175;28;20821;-75
2022/12/26 07:10:37;;;;;;;37.35;19.10;;;;;;;;;;5032556;28;20062;-75
2022/12/26 07:13:06;;;;;;;38.10;19.42;;;;;;;;;;4998192;28;20774;-75
2022/12/26 07:15:33;;;;;;;34.10;17.92;;;;;;;;;;5001946;28;20503;-75
2022/12/26 07:18:00;;;;;;;33.60;19.10;;;;;;;;;;5001358;28;20060;-75
2022/12/26 07:20:27;;;;;;;34.30;18.83;;;;;;;;;;4998289;28;20061;-75
2022/12/26 07:22:55;;;;;;;35.75;18.98;;;;;;;;;;5001171;28;20418;-76
2022/12/26 07:25:22;;;;;;;31.98;17.55;;;;;;;;;;5015862;28;20652;-75
2022/12/26 07:27:53;;;;;;;43.35;18.15;;;;;;;;;;4990717;28;20116;-75
2022/12/26 07:30:22;;;;;;;31.83;16.98;;;;;;;;;;4997301;28;20046;-75
2022/12/26 07:32:49;;;;;;;34.78;16.30;;;;;;;;;;5003857;28;20045;-75
2022/12/26 07:35:16;;;;;;;29.55;16.50;;;;;;;;;;5015183;28;20044;-75
2022/12/26 07:37:44;;;;;;;27.33;15.90;;;;;;;;;;5000502;28;20049;-75
2022/12/26 07:40:12;;;;;;;28.98;15.77;;;;;;;;;;5002248;28;20136;-75
2022/12/26 07:42:39;;;;;;;28.23;15.57;;;;;;;;;;5003051;28;20155;-75
2022/12/26 07:45:07;;;;;;;29.92;15.45;;;;;;;;;;5003111;28;20392;-75
2022/12/26 07:47:35;;;;;;;26.13;14.18;;;;;;;;;;5003725;28;20057;-75
2022/12/26 07:50:03;;;;;;;27.02;13.73;;;;;;;;;;5000849;28;20049;-75
2022/12/26 07:52:30;;;;;;;35.22;14.70;;;;;;;;;;5003068;28;20060;-75
2022/12/26 07:54:57;;;;;;;24.77;13.52;;;;;;;;;;4998947;28;20046;-76
2022/12/26 07:57:24;;;;;;;30.17;14.13;;;;;;;;;;5000753;28;20064;-75
2022/12/26 07:59:52;;;;;;;27.55;13.35;;;;;;;;;;5001555;28;20423;-75
2022/12/26 08:02:19;;;;;;;27.65;13.30;;;;;;;;;;5002456;28;20117;-74
2022/12/26 08:04:48;;;;;;;26.88;13.30;;;;;;;;;;5003205;28;20412;-75
2022/12/26 08:07:15;;;;;;;28.60;13.43;;;;;;;;;;5001739;28;20054;-75
2022/12/26 08:09:43;;;;;;;23.52;12.23;;;;;;;;;;5034969;28;20058;-75
2022/12/26 08:12:11;;;;;;;28.13;11.98;;;;;;;;;;5000716;28;20056;-75
2022/12/26 08:14:39;;;;;;;22.10;11.68;;;;;;;;;;5001237;28;20119;-75
2022/12/26 08:17:06;;;;;;;26.05;11.52;;;;;;;;;;5004375;28;20049;-75
2022/12/26 08:19:33;;;;;;;26.10;12.25;;;;;;;;;;5006549;28;20163;-74
2022/12/26 08:22:02;;;;;;;25.05;12.65;;;;;;;;;;4995758;28;20617;-74
2022/12/26 08:24:29;;;;;;;23.95;11.65;;;;;;;;;;4998862;28;20056;-75
2022/12/26 08:26:57;;;;;;;28.63;12.38;;;;;;;;;;4994475;28;20053;-74
2022/12/26 08:29:24;;;;;;;25.73;12.13;;;;;;;;;;5003053;28;20060;-75
2022/12/26 08:31:51;;;;;;;26.77;11.18;;;;;;;;;;5001174;28;20053;-75
2022/12/26 08:34:18;;;;;;;24.48;10.85;;;;;;;;;;5002438;28;20046;-75
2022/12/26 08:36:46;;;;;;;24.88;12.40;;;;;;;;;;5000615;28;20042;-75
2022/12/26 08:39:15;;;;;;;27.48;11.70;;;;;;;;;;5000329;28;20068;-75
2022/12/26 08:41:42;;;;;;;28.48;11.20;;;;;;;;;;5001790;28;20076;-75
2022/12/26 08:44:10;;;;;;;27.42;12.30;;;;;;;;;;5001796;28;20045;-74
2022/12/26 08:46:37;;;;;;;22.02;11.40;;;;;;;;;;5002192;28;20088;-75
2022/12/26 08:49:04;;;;;;;21.33;9.70;;;;;;;;;;5003517;28;20056;-75
2022/12/26 08:51:32;;;;;;;25.73;10.43;;;;;;;;;;4998947;28;20534;-75
2022/12/26 08:53:59;;;;;;;24.25;8.32;;;;;;;;;;5002717;28;20133;-75
2022/12/26 08:56:28;;;;;;;21.27;7.72;;;;;;;;;;4997642;28;20058;-75
2022/12/26 08:58:55;;;;;;;22.40;4.68;;;;;;;;;;4996390;28;20116;-76
2022/12/26 09:01:23;;;;;;;33.75;4.35;;;;;;;;;;5000857;28;20577;-76
2022/12/26 09:03:52;;;;;;;28.10;3.97;;;;;;;;;;4995747;28;20072;-76
2022/12/26 09:06:20;;;;;;;25.98;3.50;;;;;;;;;;5022011;28;20053;-75
2022/12/26 09:08:47;;;;;;;25.42;2.85;;;;;;;;;;5001370;28;20053;-76
2022/12/26 09:11:15;;;;;;;29.73;3.83;;;;;;;;;;4997450;28;20060;-75
2022/12/26 09:13:44;;;;;;;24.52;3.28;;;;;;;;;;5014529;28;20045;-76
2022/12/26 09:16:13;;;;;;;26.95;3.47;;;;;;;;;;5001883;28;20112;-75
2022/12/26 09:18:41;;;;;;;19.42;2.92;;;;;;;;;;4999066;28;20646;-75
2022/12/26 09:21:09;;;;;;;27.80;2.72;;;;;;;;;;4998343;28;20136;-76
2022/12/26 09:23:36;;;;;;;28.92;2.72;;;;;;;;;;4999276;28;20473;-75
2022/12/26 09:26:05;;;;;;;18.90;2.47;;;;;;;;;;4997659;28;20785;-76
2022/12/26 09:28:32;;;;;;;22.10;2.90;;;;;;;;;;5001013;28;20096;-76
2022/12/26 09:31:01;;;;;;;20.02;3.03;;;;;;;;;;4997250;28;20049;-76
2022/12/26 09:33:29;;;;;;;12.80;2.05;;;;;;;;;;5012264;28;20049;-77
2022/12/26 09:35:56;;;;;;;27.08;2.75;;;;;;;;;;5000825;28;20045;-76
2022/12/26 09:38:24;;;;;;;30.50;3.17;;;;;;;;;;4999350;28;20046;-76
2022/12/26 09:40:55;;;;;;;25.15;3.00;;;;;;;;;;5000022;28;20084;-76
2022/12/26 09:43:28;;;;;;;33.80;4.82;;;;;;;;;;5000175;28;20052;-75
2022/12/26 09:46:04;;;;;;;22.58;2.83;;;;;;;;;;4997482;28;20045;-75
2022/12/26 09:48:35;;;;;;;21.80;3.30;;;;;;;;;;4998112;28;20057;-74
2022/12/26 09:51:03;;;;;;;28.77;3.03;;;;;;;;;;5000330;28;20045;-76
2022/12/26 09:53:33;;;;;;;21.95;2.72;;;;;;;;;;4999284;28;20104;-77
2022/12/26 09:56:02;;;;;;;29.52;3.20;;;;;;;;;;4992253;28;20056;-75
2022/12/26 09:58:31;;;;;;;29.80;2.83;;;;;;;;;;5000829;28;20056;-75
2022/12/26 10:01:02;;;;;;;32.97;3.10;;;;;;;;;;4996252;28;20049;-76
2022/12/26 10:03:29;;;;;;;25.60;2.90;;;;;;;;;;5035154;28;20731;-76
2022/12/26 10:06:07;;;;;;;23.60;2.42;;;;;;;;;;4999864;28;20057;-76
2022/12/26 10:08:40;;;;;;;29.65;3.83;;;;;;;;;;4997652;28;20060;-74
2022/12/26 10:11:10;;;;;;;29.85;3.20;;;;;;;;;;4996556;28;20064;-75
2022/12/26 10:13:40;;;;;;;21.63;2.08;;;;;;;;;;4998075;28;20051;-76
2022/12/26 10:16:10;;;;;;;31.42;5.93;;;;;;;;;;5003271;28;20065;-76
2022/12/26 10:18:40;;;;;;;20.50;2.30;;;;;;;;;;4996869;28;20050;-76
2022/12/26 10:21:20;;;;;;;21.17;2.30;;;;;;;;;;5001127;28;20045;-76
2022/12/26 10:23:49;;;;;;;14.88;1.85;;;;;;;;;;4999504;28;20057;-76
2022/12/26 10:26:18;;;;;;;13.73;1.90;;;;;;;;;;5037090;28;20768;-76
2022/12/26 10:28:50;;;;;;;14.10;2.53;;;;;;;;;;5007755;28;20089;-76
2022/12/26 10:31:19;;;;;;;19.40;1.90;;;;;;;;;;5004382;28;20428;-76
2022/12/26 10:33:49;;;;;;;17.52;2.17;;;;;;;;;;5003905;28;20050;-76
2022/12/26 10:36:22;;;;;;;16.60;1.90;;;;;;;;;;5002647;28;20060;-76
2022/12/26 10:38:51;;;;;;;18.10;1.88;;;;;;;;;;5003279;28;20049;-75
2022/12/26 10:41:20;;;;;;;19.10;2.25;;;;;;;;;;5004716;28;20049;-75
2022/12/26 10:43:48;;;;;;;10.27;1.80;;;;;;;;;;4995240;28;20061;-76
2022/12/26 10:46:31;;;;;;;16.95;2.25;;;;;;;;;;5004077;28;20141;-76
2022/12/26 10:48:58;;;;;;;18.30;1.95;;;;;;;;;;4998865;28;20045;-76
2022/12/26 10:51:27;;;;;;;14.55;1.98;;;;;;;;;;5034542;28;20080;-75
2022/12/26 10:53:55;;;;;;;10.52;1.50;;;;;;;;;;5036093;28;20055;-76
2022/12/26 10:56:24;;;;;;;22.20;1.90;;;;;;;;;;5005234;28;20053;-76
2022/12/26 10:58:59;;;;;;;18.42;1.80;;;;;;;;;;5003554;28;20053;-76
2022/12/26 11:01:31;;;;;;;15.13;2.28;;;;;;;;;;5006610;28;20041;-76
2022/12/26 11:03:59;;;;;;;13.13;1.95;;;;;;;;;;5002877;28;20141;-76
2022/12/26 11:06:29;;;;;;;20.77;2.30;;;;;;;;;;5003611;28;20088;-75
2022/12/26 11:08:56;;;;;;;16.08;1.95;;;;;;;;;;5003104;28;20057;-76
2022/12/26 11:11:25;;;;;;;19.30;2.17;;;;;;;;;;5037154;28;20508;-77
2022/12/26 11:13:54;;;;;;;22.30;2.28;;;;;;;;;;5010356;28;20146;-76
2022/12/26 11:16:26;;;;;;;21.73;2.72;;;;;;;;;;5010414;28;20053;-77
2022/12/26 11:18:53;;;;;;;28.67;2.70;;;;;;;;;;5003809;28;20057;-77
2022/12/26 11:21:22;;;;;;;19.73;2.22;;;;;;;;;;5001929;28;20045;-76
2022/12/26 11:23:52;;;;;;;20.88;2.13;;;;;;;;;;4996693;28;20057;-77
2022/12/26 11:26:21;;;;;;;15.90;2.25;;;;;;;;;;5035425;28;20381;-77
2022/12/26 11:28:48;;;;;;;13.20;2.08;;;;;;;;;;5003953;28;20051;-77
2022/12/26 11:31:23;;;;;;;17.85;2.30;;;;;;;;;;5002791;28;20688;-77
2022/12/26 11:33:51;;;;;;;19.30;2.83;;;;;;;;;;5002682;28;20041;-77
2022/12/26 11:36:19;;;;;;;21.88;2.35;;;;;;;;;;5003679;28;20064;-77
2022/12/26 11:38:53;;;;;;;21.35;2.85;;;;;;;;;;5001261;28;20613;-77
2022/12/26 11:41:35;;;;;;;20.40;2.60;;;;;;;;;;5034373;28;20053;-77
2022/12/26 11:44:12;;;;;;;25.42;3.78;;;;;;;;;;4999437;28;20045;-77
2022/12/26 11:46:42;;;;;;;13.18;2.05;;;;;;;;;;4982471;28;20068;-76
2022/12/26 11:49:16;;;;;;;16.17;2.40;;;;;;;;;;5003064;28;20227;-76
2022/12/26 11:51:46;;;;;;;16.75;2.35;;;;;;;;;;4997924;28;20075;-76
2022/12/26 11:54:19;;;;;;;22.15;2.22;;;;;;;;;;5001213;28;20072;-77
2022/12/26 11:56:47;;;;;;;17.05;2.53;;;;;;;;;;5001201;28;20057;-77
2022/12/26 11:59:18;;;;;;;18.42;2.22;;;;;;;;;;5002782;28;20057;-77
2022/12/26 12:01:45;;;;;;;13.57;2.10;;;;;;;;;;4995405;28;20063;-76
2022/12/26 12:04:13;;;;;;;17.38;2.17;;;;;;;;;;5003406;28;20064;-77
2022/12/26 12:06:53;;;;;;;21.08;1.90;;;;;;;;;;4996202;28;21320;-77
2022/12/26 12:09:25;;;;;;;24.35;2.78;;;;;;;;;;4998020;28;20072;-77
2022/12/26 12:11:57;;;;;;;20.92;2.22;;;;;;;;;;5001685;28;20578;-77
2022/12/26 12:14:32;;;;;;;14.70;1.92;;;;;;;;;;5003416;28;20390;-77
2022/12/26 12:17:04;;;;;;;16.70;2.13;;;;;;;;;;5001454;28;20064;-77
2022/12/26 12:19:49;;;;;;;20.05;2.58;;;;;;;;;;5002240;28;20065;-77
2022/12/26 12:22:28;;;;;;;21.38;3.45;;;;;;;;;;5002831;28;20063;-77
2022/12/26 12:25:05;;;;;;;24.02;3.85;;;;;;;;;;5002323;28;20152;-77
2022/12/26 12:27:36;;;;;;;19.80;2.30;;;;;;;;;;5002480;28;20127;-77
2022/12/26 12:30:10;;;;;;;19.25;2.88;;;;;;;;;;5001635;28;20077;-77
2022/12/26 12:32:43;;;;;;;18.15;2.03;;;;;;;;;;5000681;28;20061;-77
2022/12/26 12:35:25;;;;;;;13.65;1.70;;;;;;;;;;5002127;28;20049;-77
2022/12/26 12:38:02;;;;;;;17.50;3.40;;;;;;;;;;4995774;28;20504;-77
2022/12/26 12:40:34;;;;;;;18.17;1.88;;;;;;;;;;4998801;28;20053;-77
2022/12/26 12:43:05;;;;;;;14.60;2.13;;;;;;;;;;5001054;28;20053;-77
2022/12/26 12:45:35;;;;;;;14.05;1.55;;;;;;;;;;4997844;28;20412;-77
2022/12/26 12:48:18;;;;;;;14.52;2.00;;;;;;;;;;4997548;28;20056;-77
2022/12/26 12:50:50;;;;;;;20.92;2.85;;;;;;;;;;4992170;28;20077;-77
2022/12/26 12:53:21;;;;;;;12.38;1.67;;;;;;;;;;5000661;28;20055;-77
2022/12/26 12:55:59;;;;;;;13.98;1.58;;;;;;;;;;5000310;28;20404;-77
2022/12/26 12:58:30;;;;;;;11.88;1.73;;;;;;;;;;4998352;28;20583;-77
2022/12/26 13:01:00;;;;;;;17.52;2.08;;;;;;;;;;5002544;28;20708;-77
2022/12/26 13:03:30;;;;;;;14.90;2.63;;;;;;;;;;5002258;28;20148;-77
2022/12/26 13:06:02;;;;;;;18.13;2.20;;;;;;;;;;4997458;28;21156;-77
2022/12/26 13:08:31;;;;;;;19.70;3.08;;;;;;;;;;5000264;28;20971;-77
2022/12/26 13:11:03;;;;;;;25.08;2.65;;;;;;;;;;5001630;28;20663;-77
2022/12/26 13:13:33;;;;;;;21.33;3.22;;;;;;;;;;4999272;28;20083;-77
2022/12/26 13:16:09;;;;;;;20.85;4.65;;;;;;;;;;5001833;28;20094;-77
2022/12/26 13:18:39;;;;;;;26.75;3.80;;;;;;;;;;5034160;28;20053;-78
2022/12/26 13:21:07;;;;;;;23.10;3.17;;;;;;;;;;5000770;28;20077;-77
2022/12/26 13:26:26;;;;;;;30.25;2.47;;;;;;;;;;5005458;28;20044;-77
2022/12/26 13:28:58;;;;;;;12.20;2.20;;;;;;;;;;4995400;28;20054;-77
2022/12/26 13:31:26;;;;;;;19.27;2.80;;;;;;;;;;4999467;28;20060;-77
2022/12/26 13:33:53;;;;;;;19.25;2.40;;;;;;;;;;5000988;28;20072;-76
2022/12/26 13:36:38;;;;;;;24.48;2.67;;;;;;;;;;5001743;28;20103;-77
2022/12/26 13:39:27;;;;;;;19.92;2.58;;;;;;;;;;5003561;28;20049;-77
2022/12/26 13:44:42;;;;;;;23.15;2.60;;;;;;;;;;4999503;28;20077;-77
2022/12/26 13:47:24;;;;;;;18.30;2.50;;;;;;;;;;5000591;28;20072;-77
2022/12/26 13:49:51;;;;;;;18.75;2.22;;;;;;;;;;4996266;28;20460;-77
2022/12/26 13:52:32;;;;;;;18.70;2.30;;;;;;;;;;4998979;28;20896;-77
2022/12/26 13:55:18;;;;;;;17.95;1.95;;;;;;;;;;4993714;28;20677;-77
2022/12/26 13:57:47;;;;;;;19.27;1.92;;;;;;;;;;5000807;28;20050;-77
2022/12/26 14:00:17;;;;;;;15.52;1.80;;;;;;;;;;5004494;28;20512;-77
2022/12/26 14:03:02;;;;;;;21.80;2.33;;;;;;;;;;5005554;28;20056;-77
2022/12/26 14:05:33;;;;;;;16.67;2.67;;;;;;;;;;5007849;28;20596;-77
2022/12/26 14:08:04;;;;;;;16.95;2.25;;;;;;;;;;5036451;28;20053;-77
2022/12/26 14:10:37;;;;;;;14.75;1.58;;;;;;;;;;5012511;28;20152;-77
2022/12/26 14:13:14;;;;;;;18.45;2.00;;;;;;;;;;4996626;28;20704;-77
2022/12/26 14:15:49;;;;;;;16.40;2.88;;;;;;;;;;5001535;28;20053;-77
2022/12/26 14:18:24;;;;;;;15.82;2.83;;;;;;;;;;5002545;28;20695;-77
2022/12/26 14:20:55;;;;;;;20.08;3.00;;;;;;;;;;5009794;28;20061;-77
2022/12/26 14:23:29;;;;;;;29.65;3.00;;;;;;;;;;5006871;28;20049;-77
2022/12/26 14:25:59;;;;;;;21.80;2.58;;;;;;;;;;5005650;28;20045;-77
2022/12/26 14:28:31;;;;;;;20.67;3.25;;;;;;;;;;5004346;28;20132;-77
2022/12/26 14:31:05;;;;;;;12.20;2.25;;;;;;;;;;5005867;28;20138;-77
2022/12/26 14:33:36;;;;;;;14.13;2.20;;;;;;;;;;5007406;28;20466;-77
2022/12/26 14:36:08;;;;;;;19.60;2.58;;;;;;;;;;5002418;28;20049;-77
2022/12/26 14:38:41;;;;;;;13.82;1.95;;;;;;;;;;5002549;28;20061;-77
2022/12/26 14:43:09;;;;;;;11.50;2.28;;;;;;;;;;5002502;28;20061;-77
2022/12/26 14:44:08;;;;;;;10.48;1.70;;;;;;;;;;5001276;28;20049;-77
2022/12/26 14:46:54;;;;;;;19.38;2.80;;;;;;;;;;5002541;28;20053;-77
2022/12/26 14:49:23;;;;;;;13.50;1.80;;;;;;;;;;5003622;28;20151;-77
2022/12/26 14:51:51;;;;;;;14.90;1.77;;;;;;;;;;5003880;28;20149;-77
2022/12/26 14:54:45;;;;;;;16.17;1.90;;;;;;;;;;5004069;28;20045;-77
2022/12/26 14:57:12;;;;;;;;;;;;;;;;;;4999371;28;20050;-77
2022/12/26 14:59:41;;;;;;;18.63;1.85;;;;;;;;;;5002564;28;19925;-77
2022/12/26 15:02:10;;;;;;;18.27;2.53;;;;;;;;;;5007046;28;20053;-77
2022/12/26 15:04:53;;;;;;;12.00;1.45;;;;;;;;;;5003034;28;20049;-77
2022/12/26 15:07:30;;;;;;;13.43;1.80;;;;;;;;;;5003001;28;20053;-77
2022/12/26 15:10:08;;;;;;;12.82;1.30;;;;;;;;;;4998114;28;20057;-76
2022/12/26 15:12:46;;;;;;;15.93;1.60;;;;;;;;;;5005148;28;20050;-77
2022/12/26 15:15:37;;;;;;;17.50;2.25;;;;;;;;;;5004038;28;20052;-77
2022/12/26 15:18:21;;;;;;;17.77;2.00;;;;;;;;;;4981833;28;20049;-76
2022/12/26 15:21:07;;;;;;;18.38;2.25;;;;;;;;;;5002145;28;20179;-77
2022/12/26 15:23:56;;;;;;;16.05;1.77;;;;;;;;;;4994014;28;20077;-76
2022/12/26 15:26:38;;;;;;;17.42;1.95;;;;;;;;;;4981186;28;20081;-77
2022/12/26 15:29:26;;;;;;;14.98;2.42;;;;;;;;;;4993327;28;20053;-77
2022/12/26 15:32:00;;;;;;;18.02;1.83;;;;;;;;;;4999014;28;20050;-77
2022/12/26 15:34:38;;;;;;;10.98;1.52;;;;;;;;;;4993226;28;20084;-76
2022/12/26 15:37:08;;;;;;;21.55;2.42;;;;;;;;;;5001032;28;20045;-77
2022/12/26 15:39:40;;;;;;;17.23;2.05;;;;;;;;;;4997949;28;20052;-77
2022/12/26 15:42:29;;;;;;;24.73;2.33;;;;;;;;;;4992991;28;20060;-77
2022/12/26 15:45:02;;;;;;;16.85;1.90;;;;;;;;;;4998067;28;20053;-76
2022/12/26 15:47:35;;;;;;;15.80;2.30;;;;;;;;;;4993293;28;20112;-76
2022/12/26 15:50:18;;;;;;;15.25;1.83;;;;;;;;;;4995648;28;20045;-77
2022/12/26 15:52:50;;;;;;;11.60;1.83;;;;;;;;;;5032487;28;20050;-77
2022/12/26 15:55:30;;;;;;;12.93;1.75;;;;;;;;;;5024991;28;20305;-77
2022/12/26 15:58:00;;;;;;;21.83;3.38;;;;;;;;;;4992820;28;20370;-77
2022/12/26 16:00:29;;;;;;;19.40;1.95;;;;;;;;;;4992046;28;20148;-77
2022/12/26 16:03:04;;;;;;;17.75;2.13;;;;;;;;;;4993756;28;20057;-76
2022/12/26 16:05:49;;;;;;;10.85;1.50;;;;;;;;;;4992192;28;20050;-76
2022/12/26 16:08:25;;;;;;;14.00;1.77;;;;;;;;;;4975778;28;20042;-76
2022/12/26 16:11:08;;;;;;;27.15;2.70;;;;;;;;;;4996670;28;20132;-77
2022/12/26 16:13:35;;;;;;;10.85;1.63;;;;;;;;;;5003159;28;20057;-77
2022/12/26 16:16:03;;;;;;;15.60;2.03;;;;;;;;;;5002389;28;20049;-77
2022/12/26 16:18:31;;;;;;;15.77;2.33;;;;;;;;;;5003966;28;20057;-76
2022/12/26 16:23:46;;;;;;;17.83;2.72;;;;;;;;;;4998658;28;20148;-77
2022/12/26 16:26:18;;;;;;;16.27;1.85;;;;;;;;;;4991106;28;20046;-76
2022/12/26 16:28:45;;;;;;;23.10;2.58;;;;;;;;;;4992350;28;20139;-77
2022/12/26 16:31:19;;;;;;;13.57;2.20;;;;;;;;;;4996539;28;20674;-77
2022/12/26 16:33:46;;;;;;;16.35;2.55;;;;;;;;;;5000708;28;20605;-76
2022/12/26 16:36:16;;;;;;;18.42;2.05;;;;;;;;;;5002447;28;20284;-77
2022/12/26 16:38:45;;;;;;;16.13;2.25;;;;;;;;;;4999433;28;20041;-77
2022/12/26 16:41:19;;;;;;;19.52;3.05;;;;;;;;;;5002515;28;20411;-77
2022/12/26 16:43:46;;;;;;;;;;;;;;;;;;5001700;28;20585;-77
2022/12/26 16:46:14;;;;;;;24.67;2.35;;;;;;;;;;5001404;28;19936;-77
2022/12/26 16:48:42;;;;;;;25.02;2.70;;;;;;;;;;5001160;28;20532;-77
2022/12/26 16:51:29;;;;;;;29.42;2.35;;;;;;;;;;5002458;28;20625;-77
2022/12/26 16:54:14;;;;;;;22.27;2.13;;;;;;;;;;5002521;28;20563;-78